sensor_id;sensor_type;location;lat;lon;timestamp;P1;durP1;ratioP1;P2;durP2;ratioP2
679;SDS011;322;48.846;9.230;2022-08-01T00:01:45;4.60;;;3.10;;
679;SDS011;322;48.846;9.230;2022-08-01T00:04:12;10.33;;;3.77;;
679;SDS011;322;48.846;9.230;2022-08-01T00:06:39;4.73;;;3.10;;
679;SDS011;322;48.846;9.230;2022-08-01T00:09:06;5.40;;;3.37;;
679;SDS011;322;48.846;9.230;2022-08-01T00:11:32;3.33;;;2.67;;
679;SDS011;322;48.846;9.230;2022-08-01T00:13:59;3.40;;;2.90;;
679;SDS011;322;48.846;9.230;2022-08-01T00:16:26;3.80;;;3.00;;
679;SDS011;322;48.846;9.230;2022-08-01T00:18:54;3.27;;;2.97;;
679;SDS011;322;48.846;9.230;2022-08-01T00:21:21;3.27;;;2.50;;
679;SDS011;322;48.846;9.230;2022-08-01T00:23:48;4.47;;;3.50;;
679;SDS011;322;48.846;9.230;2022-08-01T00:26:15;3.63;;;3.03;;
679;SDS011;322;48.846;9.230;2022-08-01T00:28:42;3.87;;;3.13;;
679;SDS011;322;48.846;9.230;2022-08-01T00:31:09;3.83;;;2.90;;
679;SDS011;322;48.846;9.230;2022-08-01T00:33:35;4.43;;;3.30;;
679;SDS011;322;48.846;9.230;2022-08-01T00:36:04;8.03;;;3.53;;
679;SDS011;322;48.846;9.230;2022-08-01T00:38:30;4.03;;;3.03;;
679;SDS011;322;48.846;9.230;2022-08-01T00:40:57;3.87;;;3.40;;
679;SDS011;322;48.846;9.230;2022-08-01T00:43:24;4.60;;;3.20;;
679;SDS011;322;48.846;9.230;2022-08-01T00:45:51;4.00;;;3.40;;
679;SDS011;322;48.846;9.230;2022-08-01T00:48:18;3.70;;;3.30;;
679;SDS011;322;48.846;9.230;2022-08-01T00:50:45;4.80;;;3.27;;
679;SDS011;322;48.846;9.230;2022-08-01T00:53:13;3.53;;;3.07;;
679;SDS011;322;48.846;9.230;2022-08-01T00:55:40;3.80;;;3.17;;
679;SDS011;322;48.846;9.230;2022-08-01T00:58:08;3.20;;;2.90;;
679;SDS011;322;48.846;9.230;2022-08-01T01:00:34;3.30;;;3.00;;
679;SDS011;322;48.846;9.230;2022-08-01T01:03:02;5.93;;;3.07;;
679;SDS011;322;48.846;9.230;2022-08-01T01:05:29;4.60;;;3.53;;
679;SDS011;322;48.846;9.230;2022-08-01T01:08:02;4.27;;;3.60;;
679;SDS011;322;48.846;9.230;2022-08-01T01:10:34;4.57;;;3.37;;
679;SDS011;322;48.846;9.230;2022-08-01T01:13:06;4.97;;;3.30;;
679;SDS011;322;48.846;9.230;2022-08-01T01:15:39;3.23;;;2.90;;
679;SDS011;322;48.846;9.230;2022-08-01T01:18:11;6.53;;;3.30;;
679;SDS011;322;48.846;9.230;2022-08-01T01:20:44;3.97;;;3.30;;
679;SDS011;322;48.846;9.230;2022-08-01T01:23:24;4.20;;;3.00;;
679;SDS011;322;48.846;9.230;2022-08-01T01:26:08;4.50;;;3.60;;
679;SDS011;322;48.846;9.230;2022-08-01T01:28:58;4.13;;;3.00;;
679;SDS011;322;48.846;9.230;2022-08-01T01:31:30;4.27;;;3.40;;
679;SDS011;322;48.846;9.230;2022-08-01T01:34:02;4.70;;;3.30;;
679;SDS011;322;48.846;9.230;2022-08-01T01:36:30;5.00;;;3.87;;
679;SDS011;322;48.846;9.230;2022-08-01T01:38:58;3.83;;;3.50;;
679;SDS011;322;48.846;9.230;2022-08-01T01:41:26;5.43;;;3.50;;
679;SDS011;322;48.846;9.230;2022-08-01T01:43:55;3.63;;;3.33;;
679;SDS011;322;48.846;9.230;2022-08-01T01:46:25;4.67;;;3.77;;
679;SDS011;322;48.846;9.230;2022-08-01T01:48:53;3.70;;;3.13;;
679;SDS011;322;48.846;9.230;2022-08-01T01:51:22;3.70;;;3.20;;
679;SDS011;322;48.846;9.230;2022-08-01T01:53:51;4.27;;;3.53;;
679;SDS011;322;48.846;9.230;2022-08-01T01:56:19;3.60;;;3.27;;
679;SDS011;322;48.846;9.230;2022-08-01T01:58:48;5.00;;;3.70;;
679;SDS011;322;48.846;9.230;2022-08-01T02:01:17;4.77;;;3.73;;
679;SDS011;322;48.846;9.230;2022-08-01T02:03:47;6.00;;;3.83;;
679;SDS011;322;48.846;9.230;2022-08-01T02:06:15;3.20;;;2.80;;
679;SDS011;322;48.846;9.230;2022-08-01T02:08:42;3.80;;;3.33;;
679;SDS011;322;48.846;9.230;2022-08-01T02:11:11;4.10;;;3.63;;
679;SDS011;322;48.846;9.230;2022-08-01T02:13:55;3.70;;;3.30;;
679;SDS011;322;48.846;9.230;2022-08-01T02:16:25;4.00;;;3.17;;
679;SDS011;322;48.846;9.230;2022-08-01T02:18:56;4.83;;;3.53;;
679;SDS011;322;48.846;9.230;2022-08-01T02:21:25;4.73;;;4.23;;
679;SDS011;322;48.846;9.230;2022-08-01T02:23:54;5.20;;;3.87;;
679;SDS011;322;48.846;9.230;2022-08-01T02:26:26;5.20;;;3.23;;
679;SDS011;322;48.846;9.230;2022-08-01T02:28:55;4.13;;;3.73;;
679;SDS011;322;48.846;9.230;2022-08-01T02:31:25;4.73;;;3.60;;
679;SDS011;322;48.846;9.230;2022-08-01T02:33:58;4.20;;;3.37;;
679;SDS011;322;48.846;9.230;2022-08-01T02:36:28;3.80;;;3.40;;
679;SDS011;322;48.846;9.230;2022-08-01T02:38:56;4.13;;;3.23;;
679;SDS011;322;48.846;9.230;2022-08-01T02:41:25;3.70;;;3.30;;
679;SDS011;322;48.846;9.230;2022-08-01T02:43:53;4.50;;;3.40;;
679;SDS011;322;48.846;9.230;2022-08-01T02:46:26;3.93;;;3.50;;
679;SDS011;322;48.846;9.230;2022-08-01T02:48:59;3.83;;;3.43;;
679;SDS011;322;48.846;9.230;2022-08-01T02:51:28;3.50;;;3.20;;
679;SDS011;322;48.846;9.230;2022-08-01T02:53:57;3.80;;;3.47;;
679;SDS011;322;48.846;9.230;2022-08-01T02:56:27;6.30;;;3.87;;
679;SDS011;322;48.846;9.230;2022-08-01T02:59:01;4.43;;;3.43;;
679;SDS011;322;48.846;9.230;2022-08-01T03:01:30;4.07;;;3.23;;
679;SDS011;322;48.846;9.230;2022-08-01T03:04:01;4.50;;;3.40;;
679;SDS011;322;48.846;9.230;2022-08-01T03:06:29;4.20;;;3.80;;
679;SDS011;322;48.846;9.230;2022-08-01T03:08:58;4.80;;;3.53;;
679;SDS011;322;48.846;9.230;2022-08-01T03:11:27;4.47;;;3.50;;
679;SDS011;322;48.846;9.230;2022-08-01T03:13:56;3.50;;;3.20;;
679;SDS011;322;48.846;9.230;2022-08-01T03:16:27;4.80;;;3.40;;
679;SDS011;322;48.846;9.230;2022-08-01T03:18:56;4.97;;;3.80;;
679;SDS011;322;48.846;9.230;2022-08-01T03:21:26;4.40;;;3.27;;
679;SDS011;322;48.846;9.230;2022-08-01T03:23:54;3.70;;;2.93;;
679;SDS011;322;48.846;9.230;2022-08-01T03:26:24;3.63;;;3.23;;
679;SDS011;322;48.846;9.230;2022-08-01T03:28:54;3.80;;;3.40;;
679;SDS011;322;48.846;9.230;2022-08-01T03:31:23;3.77;;;3.37;;
679;SDS011;322;48.846;9.230;2022-08-01T03:33:51;3.87;;;3.43;;
679;SDS011;322;48.846;9.230;2022-08-01T03:36:18;5.00;;;3.43;;
679;SDS011;322;48.846;9.230;2022-08-01T03:38:51;5.10;;;3.27;;
679;SDS011;322;48.846;9.230;2022-08-01T03:41:21;6.50;;;3.30;;
679;SDS011;322;48.846;9.230;2022-08-01T03:43:55;4.50;;;3.30;;
679;SDS011;322;48.846;9.230;2022-08-01T03:46:26;4.47;;;3.90;;
679;SDS011;322;48.846;9.230;2022-08-01T03:48:57;5.83;;;3.37;;
679;SDS011;322;48.846;9.230;2022-08-01T03:51:27;3.67;;;3.17;;
679;SDS011;322;48.846;9.230;2022-08-01T03:53:57;3.90;;;3.50;;
679;SDS011;322;48.846;9.230;2022-08-01T03:56:25;3.17;;;2.87;;
679;SDS011;322;48.846;9.230;2022-08-01T03:58:55;4.50;;;3.20;;
679;SDS011;322;48.846;9.230;2022-08-01T04:01:22;5.10;;;3.20;;
679;SDS011;322;48.846;9.230;2022-08-01T04:03:50;4.93;;;3.50;;
679;SDS011;322;48.846;9.230;2022-08-01T04:06:17;4.60;;;3.40;;
679;SDS011;322;48.846;9.230;2022-08-01T04:08:43;4.10;;;3.43;;
679;SDS011;322;48.846;9.230;2022-08-01T04:11:21;4.60;;;3.53;;
679;SDS011;322;48.846;9.230;2022-08-01T04:13:50;4.07;;;2.97;;
679;SDS011;322;48.846;9.230;2022-08-01T04:16:17;4.30;;;2.63;;
679;SDS011;322;48.846;9.230;2022-08-01T04:18:44;3.47;;;2.60;;
679;SDS011;322;48.846;9.230;2022-08-01T04:21:11;5.00;;;3.40;;
679;SDS011;322;48.846;9.230;2022-08-01T04:23:38;4.13;;;3.00;;
679;SDS011;322;48.846;9.230;2022-08-01T04:26:06;5.20;;;3.37;;
679;SDS011;322;48.846;9.230;2022-08-01T04:28:36;3.80;;;3.23;;
679;SDS011;322;48.846;9.230;2022-08-01T04:31:06;3.17;;;2.77;;
679;SDS011;322;48.846;9.230;2022-08-01T04:33:36;4.43;;;3.57;;
679;SDS011;322;48.846;9.230;2022-08-01T04:36:06;3.70;;;2.97;;
679;SDS011;322;48.846;9.230;2022-08-01T04:38:36;5.60;;;3.37;;
679;SDS011;322;48.846;9.230;2022-08-01T04:41:04;5.77;;;3.10;;
679;SDS011;322;48.846;9.230;2022-08-01T04:43:32;3.20;;;2.87;;
679;SDS011;322;48.846;9.230;2022-08-01T04:46:01;3.70;;;3.40;;
679;SDS011;322;48.846;9.230;2022-08-01T04:48:29;4.17;;;3.17;;
679;SDS011;322;48.846;9.230;2022-08-01T04:50:58;6.37;;;3.27;;
679;SDS011;322;48.846;9.230;2022-08-01T04:53:25;3.53;;;3.00;;
679;SDS011;322;48.846;9.230;2022-08-01T04:55:53;4.73;;;3.50;;
679;SDS011;322;48.846;9.230;2022-08-01T04:58:20;5.40;;;3.20;;
679;SDS011;322;48.846;9.230;2022-08-01T05:00:47;3.90;;;3.13;;
679;SDS011;322;48.846;9.230;2022-08-01T05:03:15;3.60;;;2.93;;
679;SDS011;322;48.846;9.230;2022-08-01T05:05:42;3.90;;;3.30;;
679;SDS011;322;48.846;9.230;2022-08-01T05:08:09;4.43;;;3.60;;
679;SDS011;322;48.846;9.230;2022-08-01T05:10:36;3.70;;;2.90;;
679;SDS011;322;48.846;9.230;2022-08-01T05:13:03;4.40;;;3.33;;
679;SDS011;322;48.846;9.230;2022-08-01T05:15:31;4.20;;;2.80;;
679;SDS011;322;48.846;9.230;2022-08-01T05:17:58;5.53;;;3.30;;
679;SDS011;322;48.846;9.230;2022-08-01T05:20:26;4.63;;;3.50;;
679;SDS011;322;48.846;9.230;2022-08-01T05:22:53;3.80;;;2.90;;
679;SDS011;322;48.846;9.230;2022-08-01T05:25:19;7.50;;;3.10;;
679;SDS011;322;48.846;9.230;2022-08-01T05:27:48;3.80;;;3.30;;
679;SDS011;322;48.846;9.230;2022-08-01T05:30:15;5.23;;;2.87;;
679;SDS011;322;48.846;9.230;2022-08-01T05:32:42;3.17;;;2.60;;
679;SDS011;322;48.846;9.230;2022-08-01T05:35:09;3.40;;;2.70;;
679;SDS011;322;48.846;9.230;2022-08-01T05:37:37;5.40;;;2.93;;
679;SDS011;322;48.846;9.230;2022-08-01T05:40:04;4.60;;;2.93;;
679;SDS011;322;48.846;9.230;2022-08-01T05:42:31;4.10;;;3.00;;
679;SDS011;322;48.846;9.230;2022-08-01T05:44:58;4.37;;;3.10;;
679;SDS011;322;48.846;9.230;2022-08-01T05:47:25;3.80;;;2.87;;
679;SDS011;322;48.846;9.230;2022-08-01T05:49:52;5.90;;;3.43;;
679;SDS011;322;48.846;9.230;2022-08-01T05:52:19;3.60;;;2.80;;
679;SDS011;322;48.846;9.230;2022-08-01T05:54:47;3.23;;;2.93;;
679;SDS011;322;48.846;9.230;2022-08-01T05:57:14;4.67;;;2.70;;
679;SDS011;322;48.846;9.230;2022-08-01T05:59:41;3.30;;;2.50;;
679;SDS011;322;48.846;9.230;2022-08-01T06:02:07;4.10;;;2.40;;
679;SDS011;322;48.846;9.230;2022-08-01T06:04:34;4.20;;;2.67;;
679;SDS011;322;48.846;9.230;2022-08-01T06:07:01;4.97;;;2.30;;
679;SDS011;322;48.846;9.230;2022-08-01T06:09:28;5.80;;;2.60;;
679;SDS011;322;48.846;9.230;2022-08-01T06:11:57;3.60;;;2.70;;
679;SDS011;322;48.846;9.230;2022-08-01T06:14:23;2.93;;;2.30;;
679;SDS011;322;48.846;9.230;2022-08-01T06:16:50;3.20;;;2.40;;
679;SDS011;322;48.846;9.230;2022-08-01T06:19:17;4.00;;;2.27;;
679;SDS011;322;48.846;9.230;2022-08-01T06:21:44;3.53;;;2.83;;
679;SDS011;322;48.846;9.230;2022-08-01T06:24:11;3.40;;;2.20;;
679;SDS011;322;48.846;9.230;2022-08-01T06:26:37;3.00;;;2.40;;
679;SDS011;322;48.846;9.230;2022-08-01T06:29:06;2.73;;;2.10;;
679;SDS011;322;48.846;9.230;2022-08-01T06:31:32;2.90;;;2.03;;
679;SDS011;322;48.846;9.230;2022-08-01T06:33:59;3.90;;;2.30;;
679;SDS011;322;48.846;9.230;2022-08-01T06:36:26;4.40;;;2.97;;
679;SDS011;322;48.846;9.230;2022-08-01T06:38:53;2.57;;;1.90;;
679;SDS011;322;48.846;9.230;2022-08-01T06:41:20;2.70;;;2.10;;
679;SDS011;322;48.846;9.230;2022-08-01T06:43:47;3.00;;;2.10;;
679;SDS011;322;48.846;9.230;2022-08-01T06:46:15;2.83;;;1.80;;
679;SDS011;322;48.846;9.230;2022-08-01T06:48:42;3.23;;;1.53;;
679;SDS011;322;48.846;9.230;2022-08-01T06:51:08;3.60;;;1.93;;
679;SDS011;322;48.846;9.230;2022-08-01T06:53:38;2.60;;;1.90;;
679;SDS011;322;48.846;9.230;2022-08-01T06:56:06;2.93;;;1.67;;
679;SDS011;322;48.846;9.230;2022-08-01T06:58:34;4.07;;;1.70;;
679;SDS011;322;48.846;9.230;2022-08-01T07:01:02;3.13;;;1.90;;
679;SDS011;322;48.846;9.230;2022-08-01T07:03:32;3.03;;;1.67;;
679;SDS011;322;48.846;9.230;2022-08-01T07:06:00;4.03;;;2.30;;
679;SDS011;322;48.846;9.230;2022-08-01T07:08:26;3.30;;;1.93;;
679;SDS011;322;48.846;9.230;2022-08-01T07:10:53;3.07;;;2.10;;
679;SDS011;322;48.846;9.230;2022-08-01T07:13:20;3.30;;;2.03;;
679;SDS011;322;48.846;9.230;2022-08-01T07:15:50;3.00;;;1.97;;
679;SDS011;322;48.846;9.230;2022-08-01T07:18:17;2.53;;;2.03;;
679;SDS011;322;48.846;9.230;2022-08-01T07:20:45;2.53;;;1.70;;
679;SDS011;322;48.846;9.230;2022-08-01T07:23:12;5.30;;;1.90;;
679;SDS011;322;48.846;9.230;2022-08-01T07:25:39;4.33;;;2.23;;
679;SDS011;322;48.846;9.230;2022-08-01T07:28:06;3.30;;;2.03;;
679;SDS011;322;48.846;9.230;2022-08-01T07:30:33;4.60;;;2.03;;
679;SDS011;322;48.846;9.230;2022-08-01T07:33:00;2.40;;;1.80;;
679;SDS011;322;48.846;9.230;2022-08-01T07:35:27;3.83;;;2.00;;
679;SDS011;322;48.846;9.230;2022-08-01T07:37:55;4.30;;;1.93;;
679;SDS011;322;48.846;9.230;2022-08-01T07:40:22;3.90;;;1.93;;
679;SDS011;322;48.846;9.230;2022-08-01T07:42:49;3.50;;;1.70;;
679;SDS011;322;48.846;9.230;2022-08-01T07:45:16;2.50;;;1.93;;
679;SDS011;322;48.846;9.230;2022-08-01T07:47:43;3.40;;;1.97;;
679;SDS011;322;48.846;9.230;2022-08-01T07:50:12;3.13;;;2.00;;
679;SDS011;322;48.846;9.230;2022-08-01T07:52:38;5.53;;;1.90;;
679;SDS011;322;48.846;9.230;2022-08-01T07:55:08;3.10;;;2.20;;
679;SDS011;322;48.846;9.230;2022-08-01T07:57:35;3.40;;;1.83;;
679;SDS011;322;48.846;9.230;2022-08-01T08:00:02;4.90;;;2.27;;
679;SDS011;322;48.846;9.230;2022-08-01T08:02:33;3.80;;;2.13;;
679;SDS011;322;48.846;9.230;2022-08-01T08:05:00;3.20;;;2.00;;
679;SDS011;322;48.846;9.230;2022-08-01T08:07:26;3.83;;;2.00;;
679;SDS011;322;48.846;9.230;2022-08-01T08:09:53;3.50;;;2.53;;
679;SDS011;322;48.846;9.230;2022-08-01T08:12:21;3.40;;;2.00;;
679;SDS011;322;48.846;9.230;2022-08-01T08:14:48;2.40;;;1.90;;
679;SDS011;322;48.846;9.230;2022-08-01T08:17:15;5.13;;;2.10;;
679;SDS011;322;48.846;9.230;2022-08-01T08:19:42;4.77;;;2.40;;
679;SDS011;322;48.846;9.230;2022-08-01T08:22:09;4.63;;;3.13;;
679;SDS011;322;48.846;9.230;2022-08-01T08:24:36;2.73;;;2.00;;
679;SDS011;322;48.846;9.230;2022-08-01T08:27:03;5.30;;;2.30;;
679;SDS011;322;48.846;9.230;2022-08-01T08:29:32;2.50;;;1.93;;
679;SDS011;322;48.846;9.230;2022-08-01T08:31:59;5.27;;;3.00;;
679;SDS011;322;48.846;9.230;2022-08-01T08:34:27;4.63;;;2.37;;
679;SDS011;322;48.846;9.230;2022-08-01T08:36:55;4.53;;;2.13;;
679;SDS011;322;48.846;9.230;2022-08-01T08:39:23;4.10;;;2.10;;
679;SDS011;322;48.846;9.230;2022-08-01T08:41:49;3.33;;;2.30;;
679;SDS011;322;48.846;9.230;2022-08-01T08:44:16;3.47;;;2.20;;
679;SDS011;322;48.846;9.230;2022-08-01T08:46:47;3.97;;;2.07;;
679;SDS011;322;48.846;9.230;2022-08-01T08:49:17;6.07;;;2.53;;
679;SDS011;322;48.846;9.230;2022-08-01T08:51:47;3.33;;;2.03;;
679;SDS011;322;48.846;9.230;2022-08-01T08:54:15;6.10;;;2.97;;
679;SDS011;322;48.846;9.230;2022-08-01T08:56:45;3.80;;;2.60;;
679;SDS011;322;48.846;9.230;2022-08-01T08:59:13;4.20;;;2.40;;
679;SDS011;322;48.846;9.230;2022-08-01T09:01:40;5.73;;;2.60;;
679;SDS011;322;48.846;9.230;2022-08-01T09:04:09;3.80;;;3.30;;
679;SDS011;322;48.846;9.230;2022-08-01T09:06:36;5.47;;;2.53;;
679;SDS011;322;48.846;9.230;2022-08-01T09:09:04;4.00;;;2.70;;
679;SDS011;322;48.846;9.230;2022-08-01T09:11:31;5.03;;;2.70;;
679;SDS011;322;48.846;9.230;2022-08-01T09:14:06;4.40;;;2.80;;
679;SDS011;322;48.846;9.230;2022-08-01T09:16:34;4.30;;;2.57;;
679;SDS011;322;48.846;9.230;2022-08-01T09:19:11;3.97;;;2.87;;
679;SDS011;322;48.846;9.230;2022-08-01T09:21:39;3.97;;;2.90;;
679;SDS011;322;48.846;9.230;2022-08-01T09:24:20;3.00;;;2.23;;
679;SDS011;322;48.846;9.230;2022-08-01T09:26:47;3.50;;;2.60;;
679;SDS011;322;48.846;9.230;2022-08-01T09:29:19;3.30;;;2.70;;
679;SDS011;322;48.846;9.230;2022-08-01T09:31:46;6.43;;;3.53;;
679;SDS011;322;48.846;9.230;2022-08-01T09:34:16;6.17;;;3.67;;
679;SDS011;322;48.846;9.230;2022-08-01T09:36:50;5.00;;;3.03;;
679;SDS011;322;48.846;9.230;2022-08-01T09:39:20;7.60;;;4.83;;
679;SDS011;322;48.846;9.230;2022-08-01T09:41:53;5.33;;;3.90;;
679;SDS011;322;48.846;9.230;2022-08-01T09:44:35;7.17;;;3.83;;
679;SDS011;322;48.846;9.230;2022-08-01T09:47:03;7.77;;;4.97;;
679;SDS011;322;48.846;9.230;2022-08-01T09:49:32;5.30;;;4.73;;
679;SDS011;322;48.846;9.230;2022-08-01T09:52:09;5.90;;;4.80;;
679;SDS011;322;48.846;9.230;2022-08-01T09:54:37;5.30;;;4.27;;
679;SDS011;322;48.846;9.230;2022-08-01T09:57:11;4.50;;;4.10;;
679;SDS011;322;48.846;9.230;2022-08-01T09:59:40;6.47;;;3.70;;
679;SDS011;322;48.846;9.230;2022-08-01T10:02:08;4.80;;;4.30;;
679;SDS011;322;48.846;9.230;2022-08-01T10:04:45;6.73;;;3.93;;
679;SDS011;322;48.846;9.230;2022-08-01T10:07:12;6.37;;;4.90;;
679;SDS011;322;48.846;9.230;2022-08-01T10:09:40;4.03;;;3.43;;
679;SDS011;322;48.846;9.230;2022-08-01T10:12:08;5.63;;;4.70;;
679;SDS011;322;48.846;9.230;2022-08-01T10:14:38;4.20;;;3.80;;
679;SDS011;322;48.846;9.230;2022-08-01T10:17:06;4.57;;;3.80;;
679;SDS011;322;48.846;9.230;2022-08-01T10:19:35;4.30;;;3.70;;
679;SDS011;322;48.846;9.230;2022-08-01T10:22:04;4.17;;;3.77;;
679;SDS011;322;48.846;9.230;2022-08-01T10:24:34;5.83;;;3.90;;
679;SDS011;322;48.846;9.230;2022-08-01T10:27:03;4.40;;;2.90;;
679;SDS011;322;48.846;9.230;2022-08-01T10:29:34;4.90;;;3.17;;
679;SDS011;322;48.846;9.230;2022-08-01T10:32:04;3.40;;;2.50;;
679;SDS011;322;48.846;9.230;2022-08-01T10:34:34;4.10;;;2.80;;
679;SDS011;322;48.846;9.230;2022-08-01T10:37:02;3.83;;;2.60;;
679;SDS011;322;48.846;9.230;2022-08-01T10:39:31;4.30;;;3.13;;
679;SDS011;322;48.846;9.230;2022-08-01T10:41:59;3.70;;;2.63;;
679;SDS011;322;48.846;9.230;2022-08-01T10:44:27;3.27;;;2.97;;
679;SDS011;322;48.846;9.230;2022-08-01T10:46:57;3.40;;;2.90;;
679;SDS011;322;48.846;9.230;2022-08-01T10:49:29;3.70;;;3.10;;
679;SDS011;322;48.846;9.230;2022-08-01T10:52:01;6.53;;;4.03;;
679;SDS011;322;48.846;9.230;2022-08-01T10:54:28;4.30;;;3.03;;
679;SDS011;322;48.846;9.230;2022-08-01T10:57:04;3.13;;;2.67;;
679;SDS011;322;48.846;9.230;2022-08-01T10:59:32;5.60;;;3.20;;
679;SDS011;322;48.846;9.230;2022-08-01T11:01:59;3.97;;;3.57;;
679;SDS011;322;48.846;9.230;2022-08-01T11:04:37;4.17;;;3.70;;
679;SDS011;322;48.846;9.230;2022-08-01T11:07:16;3.73;;;3.37;;
679;SDS011;322;48.846;9.230;2022-08-01T11:09:46;8.53;;;5.33;;
679;SDS011;322;48.846;9.230;2022-08-01T11:12:15;4.77;;;4.33;;
679;SDS011;322;48.846;9.230;2022-08-01T11:17:52;5.10;;;3.40;;
679;SDS011;322;48.846;9.230;2022-08-01T11:20:20;6.50;;;3.00;;
679;SDS011;322;48.846;9.230;2022-08-01T11:28:41;3.40;;;2.87;;
679;SDS011;322;48.846;9.230;2022-08-01T11:31:26;3.20;;;2.90;;
679;SDS011;322;48.846;9.230;2022-08-01T11:33:55;4.60;;;2.90;;
679;SDS011;322;48.846;9.230;2022-08-01T11:36:21;3.47;;;2.80;;
679;SDS011;322;48.846;9.230;2022-08-01T11:39:13;6.70;;;3.00;;
679;SDS011;322;48.846;9.230;2022-08-01T11:41:42;3.30;;;3.00;;
679;SDS011;322;48.846;9.230;2022-08-01T11:44:11;3.10;;;2.80;;
679;SDS011;322;48.846;9.230;2022-08-01T11:46:49;3.20;;;2.70;;
679;SDS011;322;48.846;9.230;2022-08-01T11:49:43;3.27;;;2.93;;
679;SDS011;322;48.846;9.230;2022-08-01T11:52:16;4.00;;;2.60;;
679;SDS011;322;48.846;9.230;2022-08-01T11:54:46;3.37;;;2.97;;
679;SDS011;322;48.846;9.230;2022-08-01T11:57:16;3.30;;;2.53;;
679;SDS011;322;48.846;9.230;2022-08-01T11:59:45;3.33;;;3.00;;
679;SDS011;322;48.846;9.230;2022-08-01T12:02:15;4.03;;;3.13;;
679;SDS011;322;48.846;9.230;2022-08-01T12:04:44;4.80;;;3.00;;
679;SDS011;322;48.846;9.230;2022-08-01T12:07:12;5.90;;;2.90;;
679;SDS011;322;48.846;9.230;2022-08-01T12:09:39;4.00;;;3.13;;
679;SDS011;322;48.846;9.230;2022-08-01T12:12:07;3.57;;;2.90;;
679;SDS011;322;48.846;9.230;2022-08-01T12:14:35;2.83;;;2.40;;
679;SDS011;322;48.846;9.230;2022-08-01T12:17:02;3.30;;;2.30;;
679;SDS011;322;48.846;9.230;2022-08-01T12:19:29;3.70;;;2.73;;
679;SDS011;322;48.846;9.230;2022-08-01T12:22:06;3.20;;;2.50;;
679;SDS011;322;48.846;9.230;2022-08-01T12:24:34;2.80;;;2.40;;
679;SDS011;322;48.846;9.230;2022-08-01T12:27:01;4.00;;;2.53;;
679;SDS011;322;48.846;9.230;2022-08-01T12:29:33;3.27;;;2.90;;
679;SDS011;322;48.846;9.230;2022-08-01T12:32:01;3.13;;;2.50;;
679;SDS011;322;48.846;9.230;2022-08-01T12:34:29;6.90;;;3.50;;
679;SDS011;322;48.846;9.230;2022-08-01T12:36:59;4.77;;;2.77;;
679;SDS011;322;48.846;9.230;2022-08-01T12:39:31;3.83;;;2.57;;
679;SDS011;322;48.846;9.230;2022-08-01T12:41:59;4.80;;;3.03;;
679;SDS011;322;48.846;9.230;2022-08-01T12:44:26;2.80;;;2.50;;
679;SDS011;322;48.846;9.230;2022-08-01T12:46:55;3.87;;;2.30;;
679;SDS011;322;48.846;9.230;2022-08-01T12:49:22;4.83;;;2.80;;
679;SDS011;322;48.846;9.230;2022-08-01T12:51:49;3.90;;;2.50;;
679;SDS011;322;48.846;9.230;2022-08-01T12:54:17;4.70;;;2.80;;
679;SDS011;322;48.846;9.230;2022-08-01T12:56:43;3.33;;;2.80;;
679;SDS011;322;48.846;9.230;2022-08-01T12:59:20;4.17;;;2.80;;
679;SDS011;322;48.846;9.230;2022-08-01T13:01:50;3.63;;;2.30;;
679;SDS011;322;48.846;9.230;2022-08-01T13:04:19;3.70;;;2.57;;
679;SDS011;322;48.846;9.230;2022-08-01T13:06:46;3.53;;;2.63;;
679;SDS011;322;48.846;9.230;2022-08-01T13:09:13;4.00;;;2.30;;
679;SDS011;322;48.846;9.230;2022-08-01T13:11:40;3.10;;;2.10;;
679;SDS011;322;48.846;9.230;2022-08-01T13:14:08;4.63;;;2.87;;
679;SDS011;322;48.846;9.230;2022-08-01T13:16:45;4.40;;;2.40;;
679;SDS011;322;48.846;9.230;2022-08-01T13:19:12;9.50;;;3.10;;
679;SDS011;322;48.846;9.230;2022-08-01T13:21:41;4.30;;;2.27;;
679;SDS011;322;48.846;9.230;2022-08-01T13:24:23;3.10;;;2.73;;
679;SDS011;322;48.846;9.230;2022-08-01T13:26:52;3.17;;;2.87;;
679;SDS011;322;48.846;9.230;2022-08-01T13:29:29;3.57;;;2.30;;
679;SDS011;322;48.846;9.230;2022-08-01T13:31:57;3.80;;;1.93;;
679;SDS011;322;48.846;9.230;2022-08-01T13:34:31;3.00;;;2.30;;
679;SDS011;322;48.846;9.230;2022-08-01T13:37:00;4.70;;;2.20;;
679;SDS011;322;48.846;9.230;2022-08-01T13:39:28;6.73;;;2.20;;
679;SDS011;322;48.846;9.230;2022-08-01T13:42:09;3.33;;;2.10;;
679;SDS011;322;48.846;9.230;2022-08-01T13:44:36;4.20;;;2.30;;
679;SDS011;322;48.846;9.230;2022-08-01T13:47:04;3.50;;;2.27;;
679;SDS011;322;48.846;9.230;2022-08-01T13:49:31;3.40;;;2.07;;
679;SDS011;322;48.846;9.230;2022-08-01T13:52:00;4.50;;;2.50;;
679;SDS011;322;48.846;9.230;2022-08-01T13:54:27;4.00;;;2.80;;
679;SDS011;322;48.846;9.230;2022-08-01T13:56:54;4.17;;;2.40;;
679;SDS011;322;48.846;9.230;2022-08-01T13:59:21;3.83;;;2.40;;
679;SDS011;322;48.846;9.230;2022-08-01T14:01:48;3.10;;;2.27;;
679;SDS011;322;48.846;9.230;2022-08-01T14:04:15;5.60;;;2.00;;
679;SDS011;322;48.846;9.230;2022-08-01T14:06:42;5.13;;;2.30;;
679;SDS011;322;48.846;9.230;2022-08-01T14:09:10;6.30;;;2.20;;
679;SDS011;322;48.846;9.230;2022-08-01T14:11:37;3.37;;;2.00;;
679;SDS011;322;48.846;9.230;2022-08-01T14:14:04;4.00;;;2.20;;
679;SDS011;322;48.846;9.230;2022-08-01T14:16:31;4.87;;;2.50;;
679;SDS011;322;48.846;9.230;2022-08-01T14:18:57;2.70;;;2.17;;
679;SDS011;322;48.846;9.230;2022-08-01T14:21:24;3.53;;;2.50;;
679;SDS011;322;48.846;9.230;2022-08-01T14:23:51;4.83;;;2.20;;
679;SDS011;322;48.846;9.230;2022-08-01T14:26:19;2.93;;;2.10;;
679;SDS011;322;48.846;9.230;2022-08-01T14:28:46;2.80;;;2.27;;
679;SDS011;322;48.846;9.230;2022-08-01T14:31:13;5.47;;;2.57;;
679;SDS011;322;48.846;9.230;2022-08-01T14:33:40;4.60;;;2.73;;
679;SDS011;322;48.846;9.230;2022-08-01T14:36:07;3.63;;;2.73;;
679;SDS011;322;48.846;9.230;2022-08-01T14:38:33;2.70;;;2.43;;
679;SDS011;322;48.846;9.230;2022-08-01T14:41:00;3.33;;;2.77;;
679;SDS011;322;48.846;9.230;2022-08-01T14:43:29;6.23;;;2.43;;
679;SDS011;322;48.846;9.230;2022-08-01T14:45:57;2.67;;;2.17;;
679;SDS011;322;48.846;9.230;2022-08-01T14:48:24;3.40;;;2.17;;
679;SDS011;322;48.846;9.230;2022-08-01T14:50:51;2.93;;;2.23;;
679;SDS011;322;48.846;9.230;2022-08-01T14:53:18;4.53;;;2.40;;
679;SDS011;322;48.846;9.230;2022-08-01T14:55:45;4.10;;;2.10;;
679;SDS011;322;48.846;9.230;2022-08-01T14:58:12;3.00;;;2.63;;
679;SDS011;322;48.846;9.230;2022-08-01T15:00:40;4.37;;;2.47;;
679;SDS011;322;48.846;9.230;2022-08-01T15:03:07;4.73;;;2.23;;
679;SDS011;322;48.846;9.230;2022-08-01T15:05:34;5.10;;;2.33;;
679;SDS011;322;48.846;9.230;2022-08-01T15:08:02;3.37;;;2.50;;
679;SDS011;322;48.846;9.230;2022-08-01T15:10:30;2.50;;;2.03;;
679;SDS011;322;48.846;9.230;2022-08-01T15:12:57;3.63;;;2.47;;
679;SDS011;322;48.846;9.230;2022-08-01T15:15:25;7.60;;;2.90;;
679;SDS011;322;48.846;9.230;2022-08-01T15:17:53;3.83;;;2.30;;
679;SDS011;322;48.846;9.230;2022-08-01T15:20:20;3.10;;;2.00;;
679;SDS011;322;48.846;9.230;2022-08-01T15:22:47;3.23;;;2.37;;
679;SDS011;322;48.846;9.230;2022-08-01T15:25:14;2.77;;;2.47;;
679;SDS011;322;48.846;9.230;2022-08-01T15:27:40;3.20;;;2.40;;
679;SDS011;322;48.846;9.230;2022-08-01T15:30:07;4.00;;;2.80;;
679;SDS011;322;48.846;9.230;2022-08-01T15:32:35;2.90;;;2.20;;
679;SDS011;322;48.846;9.230;2022-08-01T15:35:03;3.27;;;2.30;;
679;SDS011;322;48.846;9.230;2022-08-01T15:37:31;3.70;;;2.57;;
679;SDS011;322;48.846;9.230;2022-08-01T15:39:58;3.83;;;1.90;;
679;SDS011;322;48.846;9.230;2022-08-01T15:42:24;3.70;;;2.20;;
679;SDS011;322;48.846;9.230;2022-08-01T15:44:51;3.00;;;1.83;;
679;SDS011;322;48.846;9.230;2022-08-01T15:47:18;4.60;;;1.90;;
679;SDS011;322;48.846;9.230;2022-08-01T15:49:45;3.23;;;1.80;;
679;SDS011;322;48.846;9.230;2022-08-01T15:52:13;2.60;;;1.90;;
679;SDS011;322;48.846;9.230;2022-08-01T15:54:40;2.43;;;1.70;;
679;SDS011;322;48.846;9.230;2022-08-01T15:57:07;3.20;;;1.97;;
679;SDS011;322;48.846;9.230;2022-08-01T15:59:34;2.60;;;1.90;;
679;SDS011;322;48.846;9.230;2022-08-01T16:02:02;3.43;;;1.90;;
679;SDS011;322;48.846;9.230;2022-08-01T16:04:29;3.03;;;2.10;;